createdAt,value
2022-10-23T14:01:18.973Z,13.68
2022-10-23T14:07:46.711Z,13.63
2022-10-23T14:51:48.127Z,13.51
2022-10-23T15:26:55.427Z,14.84
2022-10-23T15:29:42.223Z,15.07
2022-10-23T15:37:55.222Z,15.61
2022-10-23T15:40:46.662Z,15.81
2022-10-23T15:43:41.549Z,15.97
2022-10-23T15:46:12.830Z,16.18
2022-10-23T15:48:43.744Z,16.32
2022-10-23T15:51:11.946Z,16.44
2022-10-23T15:53:43.303Z,16.55
2022-10-23T15:56:14.657Z,16.67
2022-10-23T15:58:42.994Z,16.83
2022-10-23T16:07:16.644Z,17.27
2022-10-23T16:09:45.012Z,17.36
2022-10-23T16:12:19.043Z,17.48
2022-10-23T16:14:50.431Z,17.60
2022-10-23T16:17:46.031Z,17.70
2022-10-23T16:20:46.708Z,17.73
2022-10-23T16:23:51.861Z,17.79
2022-10-23T16:26:41.731Z,17.95
2022-10-23T16:29:12.897Z,18.03
2022-10-23T16:31:43.604Z,18.09
2022-10-23T16:34:12.824Z,18.17
2022-10-23T16:36:44.094Z,18.25
2022-10-23T16:39:42.485Z,18.34
2022-10-23T16:42:46.007Z,18.44
2022-10-23T16:45:19.992Z,18.59
2022-10-23T16:47:48.256Z,18.79
2022-10-23T16:50:49.800Z,18.87
2022-10-23T16:53:42.816Z,18.98
2022-10-23T16:59:13.052Z,19.27
2022-10-23T17:01:44.463Z,19.38
2022-10-23T17:04:12.826Z,19.44
2022-10-23T17:06:43.736Z,19.63
2022-10-23T17:09:43.119Z,19.87
2022-10-23T17:12:21.386Z,20.16
2022-10-23T17:14:49.695Z,20.26
2022-10-23T17:17:43.567Z,20.32
2022-10-23T17:23:11.748Z,20.51
2022-10-23T17:25:43.037Z,20.55
2022-10-23T17:28:11.362Z,20.65
2022-10-23T17:30:47.826Z,20.68
2022-10-23T17:33:43.009Z,20.77
2022-10-23T17:39:13.125Z,20.88
2022-10-23T17:41:41.553Z,20.98
2022-10-23T17:44:15.366Z,21.12
2022-10-23T17:46:43.761Z,21.22
2022-10-23T17:55:47.002Z,21.50
2022-10-23T17:58:44.824Z,21.42
2022-10-23T18:01:44.457Z,21.52
2022-10-23T18:04:12.702Z,21.63
2022-10-23T18:06:51.818Z,21.73
2022-10-23T18:09:46.633Z,21.85
2022-10-23T18:15:44.094Z,21.94
2022-10-23T18:27:13.831Z,22.45
2022-10-23T18:29:44.727Z,22.51
2022-10-23T18:32:12.543Z,22.43
2022-10-23T18:34:43.679Z,22.55
2022-10-23T18:40:45.422Z,22.61
2022-10-23T18:43:15.318Z,22.73
2022-10-23T18:45:48.438Z,22.79
2022-10-23T18:48:45.282Z,22.80
2022-10-23T18:52:13.524Z,22.84
2022-10-23T18:54:44.383Z,22.74
2022-10-23T19:05:48.935Z,23.09
2022-10-23T19:14:34.892Z,23.29
2022-10-23T19:17:54.825Z,23.29
2022-10-23T19:20:51.131Z,23.24
2022-10-23T19:29:54.669Z,23.20
2022-10-23T19:32:54.546Z,23.40
2022-10-23T19:35:44.331Z,23.48
2022-10-23T19:38:15.550Z,23.44
2022-10-23T19:40:47.053Z,23.54
2022-10-23T19:46:15.225Z,23.76
2022-10-23T19:48:47.627Z,23.79
2022-10-23T19:51:15.906Z,23.84
2022-10-23T19:53:47.029Z,23.93
2022-10-23T19:56:15.448Z,23.91
2022-10-23T19:58:46.398Z,23.84
2022-10-23T20:01:17.988Z,23.84
2022-10-23T20:03:46.638Z,23.81
2022-10-23T20:06:47.121Z,23.70
2022-10-23T20:09:15.501Z,23.46
2022-10-23T20:11:46.638Z,23.43
2022-10-23T20:14:17.131Z,23.33
2022-10-23T20:16:52.223Z,23.26
2022-10-23T20:19:55.298Z,23.29
2022-10-23T20:22:51.017Z,23.41
2022-10-23T20:25:47.617Z,23.48
2022-10-23T20:28:16.110Z,23.62
2022-10-23T20:30:47.199Z,23.80
2022-10-23T20:33:15.497Z,23.89
2022-10-23T20:35:46.311Z,23.89
2022-10-23T20:38:16.323Z,23.78
2022-10-23T20:40:47.904Z,23.79
2022-10-23T20:43:19.215Z,23.81
2022-10-23T20:48:48.831Z,23.68
2022-10-23T20:51:51.394Z,23.56
2022-10-23T20:54:48.601Z,23.36
2022-10-23T20:57:20.555Z,23.28
2022-10-23T20:59:49.571Z,23.17
2022-10-23T21:02:17.887Z,23.13
2022-10-23T21:04:48.478Z,23.14
2022-10-23T21:07:19.490Z,23.14
2022-10-23T21:09:47.817Z,23.07
2022-10-23T21:12:16.293Z,23.00
2022-10-23T21:14:47.680Z,22.94
2022-10-23T21:17:20.887Z,22.87
2022-10-23T21:19:49.828Z,22.81
2022-10-23T21:22:17.959Z,22.76
2022-10-23T21:24:46.894Z,22.77
2022-10-23T21:27:16.162Z,22.84
2022-10-23T21:29:48.052Z,22.79
2022-10-23T21:32:20.372Z,22.71
2022-10-23T21:34:48.594Z,22.68
2022-10-23T21:37:19.825Z,22.68
2022-10-23T21:39:53.504Z,22.60
2022-10-23T21:44:57.841Z,22.56
2022-10-23T21:47:30.843Z,22.55
2022-10-23T21:49:59.012Z,22.54
2022-10-23T21:55:18.223Z,22.56
2022-10-23T21:57:49.367Z,22.49
2022-10-23T22:00:24.025Z,22.43
2022-10-23T22:02:52.333Z,22.44
2022-10-23T22:05:22.604Z,22.44
2022-10-23T22:07:51.809Z,22.38
2022-10-23T22:10:20.014Z,22.35
2022-10-23T22:12:50.630Z,22.35
2022-10-23T22:15:32.510Z,22.37
2022-10-23T22:18:49.642Z,22.31
2022-10-23T22:21:25.620Z,22.26
2022-10-23T22:23:56.879Z,22.23
2022-10-23T22:26:54.508Z,22.25
2022-10-23T22:29:50.738Z,22.22
2022-10-23T22:34:55.636Z,22.16
2022-10-23T22:37:51.830Z,22.17
2022-10-23T22:40:53.765Z,22.15
2022-10-23T22:43:22.004Z,22.13
2022-10-23T22:45:53.249Z,22.13
2022-10-23T22:48:26.032Z,22.12
2022-10-23T22:50:54.295Z,22.11
2022-10-23T22:53:50.520Z,22.10
2022-10-23T22:56:50.704Z,22.04
2022-10-23T22:59:56.982Z,22.01
